^^
Datos históricos de la estación: Murcia-Puente Tocinos
Diario Informe para Enero 26, 2019 Unidades:  Ingés    Métrico   Ambas
Diario Semanal Mensual Anual
  Máxima: Mínima: Promedio:
Temperatura: 68.4 °F 49.1 °F 58.5 °F
Punto de rocio: 45.3 °F 37.2 °F 40.5 °F
Humedad: 73.9% 39% 52%
Velocidad viento: 6.9mph 0mph 3.7mph
Racha viento: 15.2mph - -
Viento- - SO
Presión: 30.1 in 30 in -
Precipitación: 0 in    
 
 
Tabla de datos para Enero 26, 2019
Hora Temperatura Punto de rocio Presión Viento Velocidad viento Racha viento Humedad Intensidad lluvia(por hora) Nubes
00:04 61 °F 39.4 °F 30 in SO 4 mph 11.8 mph 44.6% 0 in
00:09 61.3 °F 39.2 °F 30 in SO 5 mph 12 mph 44% 0 in
00:14 61.3 °F 39.2 °F 30 in SO 5.9 mph 10.4 mph 44% 0 in
00:19 61.3 °F 39.2 °F 30 in SO 5.9 mph 10.7 mph 44% 0 in
00:24 61.3 °F 39.2 °F 30 in SO 5.9 mph 11 mph 44% 0 in
00:29 61.2 °F 39.2 °F 30 in SSO 5.3 mph 9 mph 44% 0 in
00:34 61.2 °F 39 °F 30 in SO 4.7 mph 9.2 mph 44% 0 in
00:39 61.2 °F 39 °F 30 in SO 5 mph 9 mph 44% 0 in
00:44 61.2 °F 39 °F 30 in SO 5.2 mph 8.5 mph 44% 0 in
00:49 61 °F 39.2 °F 30 in Oeste 5.3 mph 9 mph 44.6% 0 in
00:54 60.6 °F 39.2 °F 30 in OSO 5.4 mph 9.7 mph 45% 0 in
00:59 60.4 °F 39 °F 30 in OSO 5.3 mph 10 mph 45% 0 in
01:04 60.3 °F 38.8 °F 30 in SO 5.2 mph 10 mph 45% 0 in
01:09 60.3 °F 38.8 °F 30 in OSO 4.9 mph 8.5 mph 45% 0 in
01:14 60.3 °F 39.2 °F 30 in Oeste 4.7 mph 9 mph 45.8% 0 in
01:19 60.1 °F 39 °F 30 in Oeste 5 mph 11.5 mph 45.8% 0 in
01:24 60.3 °F 38.8 °F 30 in Oeste 5.2 mph 14.5 mph 45% 0 in
01:29 60.4 °F 39 °F 30 in Oeste 6.1 mph 14 mph 45% 0 in
01:34 60.3 °F 38.8 °F 30 in Oeste 6.9 mph 11.8 mph 45% 0 in
01:39 60.1 °F 38.7 °F 30 in Oeste 6.2 mph 12 mph 45% 0 in
01:44 60.1 °F 38.7 °F 30 in SO 5.4 mph 12 mph 45.1% 0 in
01:49 59.9 °F 38.8 °F 30 in SO 5.8 mph 12 mph 45.6% 0 in
01:54 59.7 °F 39 °F 30 in OSO 6.2 mph 13 mph 46% 0 in
01:59 59.7 °F 38.3 °F 30 in OSO 6.3 mph 13 mph 45.1% 0 in
02:04 59.7 °F 38.3 °F 30 in SO 6.4 mph 12 mph 45% 0 in
02:09 59.7 °F 38.3 °F 30 in OSO 6.6 mph 15 mph 45% 0 in
02:14 59.5 °F 38.5 °F 30 in OSO 6.9 mph 15 mph 45.5% 0 in
02:19 59.4 °F 38.7 °F 30 in OSO 5.8 mph 10 mph 46% 0 in
02:24 59 °F 38.5 °F 30 in SO 4.7 mph 8 mph 46.6% 0 in
02:29 58.6 °F 38.5 °F 30 in SO 4.5 mph 8.1 mph 47% 0 in
02:34 58.5 °F 38.5 °F 30 in SO 4.3 mph 8 mph 47.4% 0 in
02:39 58.3 °F 38.7 °F 30 in SO 4.2 mph 7 mph 48% 0 in
02:44 57.9 °F 38.3 °F 30 in OSO 4 mph 7.4 mph 48% 0 in
02:49 57.9 °F 38.3 °F 30 in SO 3.5 mph 7 mph 48% 0 in
02:54 57.7 °F 38.1 °F 30 in SSO 3.1 mph 6.9 mph 48% 0 in
02:59 57.7 °F 38.1 °F 30 in SO 3 mph 7 mph 48% 0 in
03:04 57.7 °F 38.1 °F 30 in SO 2.9 mph 7 mph 48% 0 in
03:09 57.6 °F 38.3 °F 30 in ESE 2.9 mph 6.2 mph 48.6% 0 in
03:14 57.4 °F 38.3 °F 30 in SSE 2.9 mph 6.2 mph 49% 0 in
03:19 57 °F 38.1 °F 30 in SE 3 mph 6 mph 49% 0 in
03:24 57 °F 38.3 °F 30 in Sur 3.1 mph 5.2 mph 49.8% 0 in
03:29 56.8 °F 38.5 °F 30 in Sur 3.1 mph 8.1 mph 50% 0 in
03:34 56.8 °F 38.5 °F 30 in SO 3.1 mph 8.1 mph 50% 0 in
03:39 56.8 °F 38.1 °F 30 in SO 3.7 mph 7.4 mph 49.3% 0 in
03:44 57 °F 37.9 °F 30 in SSO 4.3 mph 7 mph 49% 0 in
03:49 57 °F 37.9 °F 30 in SSO 4.3 mph 6.2 mph 49% 0 in
03:54 56.8 °F 37.9 °F 30 in SO 4.3 mph 6.2 mph 49.1% 0 in
03:59 56.7 °F 38.3 °F 30 in OSO 3.9 mph 8.1 mph 50% 0 in
04:04 56.7 °F 38.1 °F 30 in ONO 3.6 mph 12.7 mph 50% 0 in
04:09 56.7 °F 37.9 °F 30 in Oeste 4.5 mph 15 mph 49.2% 0 in
04:14 56.7 °F 38.1 °F 30 in OSO 5.4 mph 15 mph 49.8% 0 in
04:19 56.5 °F 37.9 °F 30 in SO 4.5 mph 6.2 mph 50% 0 in
04:24 56.1 °F 37.9 °F 30 in SSO 3.6 mph 7.4 mph 50.6% 0 in
04:29 55.9 °F 38.1 °F 30 in SSO 3.9 mph 10.4 mph 51% 0 in
04:34 55.9 °F 37.8 °F 30 in OSO 4.3 mph 10.4 mph 50.4% 0 in
04:39 56.1 °F 37.8 °F 30 in OSO 5.1 mph 10 mph 50% 0 in
04:44 55.9 °F 37.8 °F 30 in Oeste 5.9 mph 15.2 mph 50.1% 0 in
04:49 55.8 °F 37.9 °F 30.1 in OSO 6.1 mph 15 mph 51% 0 in
04:54 55.6 °F 37.8 °F 30.1 in OSO 6.2 mph 14 mph 51% 0 in
04:59 55.6 °F 37.8 °F 30.1 in OSO 6 mph 11 mph 51% 0 in
05:04 55.6 °F 37.8 °F 30.1 in OSO 5.9 mph 10.7 mph 51% 0 in
05:09 55.4 °F 37.6 °F 30.1 in OSO 5.9 mph 11 mph 51% 0 in
05:14 55.2 °F 37.4 °F 30.1 in OSO 5.9 mph 11.5 mph 51.1% 0 in
05:19 55.2 °F 37.9 °F 30.1 in SO 6 mph 12 mph 52% 0 in
05:24 55.2 °F 37.8 °F 30.1 in SO 6.2 mph 11 mph 52% 0 in
05:29 55 °F 37.8 °F 30.1 in SO 4.9 mph 6 mph 52% 0 in
05:34 54.9 °F 37.9 °F 30.1 in Sur 3.6 mph 6 mph 52.7% 0 in
05:39 54.7 °F 37.9 °F 30.1 in SO 3.8 mph 6 mph 53% 0 in
05:44 54.5 °F 37.6 °F 30.1 in SO 4 mph 6 mph 53% 0 in
05:49 54.3 °F 37.6 °F 30.1 in SSO 3.5 mph 6 mph 53.1% 0 in
05:54 54.1 °F 37.8 °F 30.1 in SSO 3.1 mph 8.1 mph 54% 0 in
05:59 54.1 °F 37.8 °F 30.1 in SSO 4 mph 9.2 mph 54% 0 in
06:04 54 °F 37.8 °F 30.1 in SSO 4.7 mph 10.4 mph 54% 0 in
06:09 54 °F 37.8 °F 30.1 in SO 5.6 mph 10 mph 54% 0 in
06:14 54 °F 37.8 °F 30.1 in SO 6.4 mph 10 mph 54% 0 in
06:19 54 °F 37.8 °F 30.1 in SO 5.8 mph 10 mph 54% 0 in
06:24 54 °F 37.8 °F 30.1 in SO 5.2 mph 9.2 mph 54% 0 in
06:29 54.1 °F 37.8 °F 30.1 in SO 5.2 mph 9 mph 54% 0 in
06:34 54.1 °F 37.4 °F 30.1 in SO 5.2 mph 8 mph 53% 0 in
06:39 54.1 °F 37.6 °F 30.1 in SO 4.7 mph 6.9 mph 53.4% 0 in
06:44 54.1 °F 37.8 °F 30.1 in SO 4.3 mph 7.6 mph 54% 0 in
06:49 54 °F 37.6 °F 30.1 in SO 4.3 mph 8 mph 54% 0 in
06:54 53.6 °F 37.4 °F 30.1 in SO 4.3 mph 7 mph 54.4% 0 in
06:59 53.2 °F 37.6 °F 30.1 in SO 4.2 mph 6 mph 55% 0 in
07:04 53.1 °F 37.4 °F 30.1 in SO 4 mph 6.9 mph 55.2% 0 in
07:09 53.1 °F 37.8 °F 30.1 in SO 4 mph 7 mph 56% 0 in
07:14 52.9 °F 37.6 °F 30.1 in SO 4 mph 6.2 mph 56% 0 in
07:19 52.5 °F 37.4 °F 30.1 in SO 4 mph 6.2 mph 56% 0 in
07:24 52.3 °F 37.6 °F 30.1 in SO 4 mph 6.2 mph 56.8% 0 in
07:29 52.3 °F 37.6 °F 30.1 in SO 4.2 mph 6 mph 57% 0 in
07:34 52.3 °F 37.6 °F 30.1 in SO 4.3 mph 6 mph 57% 0 in
07:39 52.3 °F 37.4 °F 30.1 in SO 3.7 mph 6 mph 57% 0 in
07:44 52 °F 37.4 °F 30.1 in OSO 3.1 mph 5 mph 57.4% 0 in
07:49 51.4 °F 37.4 °F 30.1 in Oeste 3.1 mph 5.2 mph 58.5% 0 in
07:54 50.9 °F 37.4 °F 30.1 in Oeste 3.1 mph 5 mph 59.5% 0 in
07:59 50.4 °F 37.2 °F 30.1 in Oeste 3 mph 5.2 mph 60.6% 0 in
08:04 49.8 °F 37.2 °F 30.1 in Oeste 2.9 mph 5 mph 61.7% 0 in
08:09 49.5 °F 37.2 °F 30.1 in Oeste 2.9 mph 5 mph 62.5% 0 in
08:14 49.3 °F 37.2 °F 30.1 in ONO 2.9 mph 5.9 mph 63% 0 in
08:19 49.1 °F 37.2 °F 30.1 in Oeste 3.2 mph 6.4 mph 63.3% 0 in
08:24 49.3 °F 37.2 °F 30.1 in Oeste 3.6 mph 7 mph 63.2% 0 in
08:29 49.3 °F 37.2 °F 30.1 in Oeste 3.4 mph 5.2 mph 63% 0 in
08:34 49.5 °F 37.4 °F 30.1 in Oeste 3.1 mph 5 mph 63% 0 in
08:39 49.5 °F 37.4 °F 30.1 in ONO 3 mph 5.8 mph 63% 0 in
08:44 49.6 °F 37.6 °F 30.1 in ONO 2.9 mph 6 mph 63% 0 in
08:49 49.6 °F 37.4 °F 30.1 in ONO 3 mph 5 mph 62.4% 0 in
08:54 49.8 °F 37.4 °F 30.1 in ONO 3.1 mph 5 mph 62% 0 in
08:59 50.2 °F 37.8 °F 30.1 in ONO 3 mph 5 mph 62% 0 in
09:04 50.4 °F 37.8 °F 30.1 in Oeste 2.9 mph 6.2 mph 62% 0 in
09:09 50.2 °F 37.8 °F 30.1 in Oeste 3 mph 6 mph 62% 0 in
09:14 50.4 °F 37.6 °F 30.1 in Oeste 3.1 mph 6.2 mph 61.6% 0 in
09:19 50.4 °F 37.6 °F 30.1 in Oeste 3.1 mph 6 mph 61.5% 0 in
09:24 50.5 °F 37.8 °F 30.1 in Oeste 3.1 mph 5 mph 61.4% 0 in
09:29 50.9 °F 37.9 °F 30.1 in Oeste 2.7 mph 5 mph 61% 0 in
09:34 51.1 °F 38.1 °F 30.1 in Oeste 2.4 mph 4.6 mph 61% 0 in
09:39 51.4 °F 38.1 °F 30.1 in ONO 2.4 mph 5 mph 60.3% 0 in
09:44 51.8 °F 38.3 °F 30.1 in Oeste 2.4 mph 5 mph 60% 0 in
09:49 52.2 °F 38.3 °F 30.1 in Oeste 2.7 mph 5.8 mph 59% 0 in
09:54 52.3 °F 38.5 °F 30.1 in Oeste 2.9 mph 6 mph 59% 0 in
09:59 52.7 °F 38.5 °F 30.1 in Oeste 2.6 mph 5 mph 58.2% 0 in
10:04 53.1 °F 38.3 °F 30.1 in Oeste 2.4 mph 4.7 mph 57.3% 0 in
10:09 53.2 °F 38.5 °F 30.1 in OSO 2.4 mph 5 mph 56.9% 0 in
10:14 54 °F 38.5 °F 30.1 in SSO 2.4 mph 5 mph 56% 0 in
10:19 54.3 °F 38.7 °F 30.1 in OSO 2.2 mph 5.2 mph 55.3% 0 in
10:24 54.5 °F 38.3 °F 30.1 in OSO 2 mph 5 mph 54% 0 in
10:29 54.7 °F 38.5 °F 30.1 in OSO 2.5 mph 5.8 mph 54% 0 in
10:34 54.9 °F 38.1 °F 30.1 in OSO 2.9 mph 6 mph 53.3% 0 in
10:39 55 °F 38.1 °F 30.1 in OSO 3.2 mph 6 mph 53% 0 in
10:44 55 °F 38.1 °F 30.1 in OSO 3.6 mph 6.9 mph 53% 0 in
10:49 55 °F 38.3 °F 30.1 in SO 4 mph 7 mph 53.1% 0 in
10:54 55.2 °F 38.5 °F 30.1 in SO 4.3 mph 6 mph 53% 0 in
10:59 55.6 °F 38.7 °F 30.1 in SO 3.9 mph 6 mph 53% 0 in
11:04 55.9 °F 38.8 °F 30.1 in OSO 3.6 mph 5 mph 52.4% 0 in
11:09 56.1 °F 38.7 °F 30.1 in OSO 3 mph 5.8 mph 52% 0 in
11:14 56.3 °F 38.7 °F 30.1 in SO 2.4 mph 6.2 mph 51.6% 0 in
11:19 56.7 °F 38.7 °F 30.1 in SO 2.6 mph 6 mph 51% 0 in
11:24 57.2 °F 38.8 °F 30.1 in OSO 2.9 mph 6.4 mph 50.2% 0 in
11:29 57.6 °F 38.5 °F 30.1 in SO 3 mph 7 mph 49.1% 0 in
11:34 57.6 °F 38.5 °F 30.1 in Oeste 3.1 mph 6.9 mph 49% 0 in
11:39 57.6 °F 38.5 °F 30.1 in OSO 3.5 mph 7.4 mph 48.8% 0 in
11:44 57.7 °F 38.3 °F 30.1 in Oeste 4 mph 7.4 mph 48.5% 0 in
11:49 57.7 °F 38.3 °F 30.1 in ONO 3.8 mph 7 mph 48% 0 in
11:54 58.1 °F 38.5 °F 30.1 in OSO 3.6 mph 7 mph 47.9% 0 in
11:59 58.5 °F 38.3 °F 30.1 in OSO 2.7 mph 8.1 mph 47% 0 in
12:04 58.6 °F 37.9 °F 30.1 in ONO 2 mph 8 mph 46.1% 0 in
12:09 58.6 °F 38.5 °F 30.1 in SSO 3 mph 7 mph 47% 0 in
12:14 58.8 °F 38.3 °F 30.1 in SO 4 mph 6 mph 46.3% 0 in
12:19 59.2 °F 38.5 °F 30.1 in OSO 3.2 mph 5.9 mph 46% 0 in
12:24 59.4 °F 38.3 °F 30.1 in OSO 2.4 mph 6.9 mph 45.6% 0 in
12:29 59.5 °F 38.7 °F 30.1 in SSO 2.7 mph 7 mph 45.6% 0 in
12:34 59.9 °F 38.5 °F 30.1 in Oeste 3.1 mph 7 mph 45% 0 in
12:39 59.7 °F 38.3 °F 30.1 in Oeste 3.4 mph 7 mph 45% 0 in
12:44 59.9 °F 38.5 °F 30.1 in Oeste 3.6 mph 7.4 mph 45% 0 in
12:49 60.3 °F 38.5 °F 30.1 in SO 3.2 mph 8.1 mph 44.6% 0 in
12:54 60.4 °F 38.5 °F 30.1 in OSO 2.9 mph 8 mph 44% 0 in
12:59 60.6 °F 38.7 °F 30.1 in ONO 3.3 mph 7 mph 44% 0 in
13:04 60.6 °F 38.7 °F 30.1 in ONO 3.6 mph 6 mph 44% 0 in
13:09 61.2 °F 38.8 °F 30.1 in ONO 3.2 mph 6.4 mph 43.8% 0 in
13:14 61.3 °F 38.7 °F 30.1 in Oeste 2.9 mph 7 mph 43% 0 in
13:19 61.3 °F 38.8 °F 30.1 in OSO 3.4 mph 6 mph 43.2% 0 in
13:24 61.7 °F 39.2 °F 30.1 in OSO 4 mph 6.9 mph 43.2% 0 in
13:29 61.9 °F 39 °F 30.1 in Oeste 3.8 mph 7 mph 43% 0 in
13:34 62.1 °F 39.4 °F 30.1 in NO 3.6 mph 5 mph 43% 0 in
13:39 62.6 °F 39.6 °F 30.1 in NO 2.5 mph 6.2 mph 42.6% 0 in
13:44 63 °F 39.6 °F 30.1 in Oeste 1.4 mph 6 mph 41.9% 0 in
13:49 63.3 °F 39.7 °F 30.1 in ONO 1.7 mph 6 mph 42% 0 in
13:54 63.9 °F 39.9 °F 30.1 in OSO 2 mph 5.9 mph 41.2% 0 in
13:59 64.2 °F 40.1 °F 30.1 in SE 2 mph 6 mph 41% 0 in
14:04 64.6 °F 40.3 °F 30.1 in ENE 2 mph 3.5 mph 40.8% 0 in
14:09 64.9 °F 39.9 °F 30 in NO 1.9 mph 5.9 mph 40.1% 0 in
14:14 64.8 °F 39.9 °F 30 in Oeste 1.8 mph 6.2 mph 40.2% 0 in
14:19 64.6 °F 40.3 °F 30 in NNE 2.5 mph 6 mph 41% 0 in
14:24 64.4 °F 40.1 °F 30 in NNE 3.1 mph 5 mph 41% 0 in
14:29 64.6 °F 40.3 °F 30 in Oeste 2.7 mph 5.8 mph 41% 0 in
14:34 64.8 °F 40.5 °F 30 in OSO 2.4 mph 6 mph 41% 0 in
14:39 64.8 °F 40.6 °F 30 in SO 2.4 mph 6 mph 41% 0 in
14:44 65.1 °F 40.8 °F 30 in Oeste 2.4 mph 5.8 mph 41% 0 in
14:49 65.5 °F 41.2 °F 30 in SO 2.4 mph 6 mph 41% 0 in
14:54 65.8 °F 41.5 °F 30 in SSO 2.4 mph 5 mph 41% 0 in
14:59 66.4 °F 41.2 °F 30 in OSO 2.2 mph 6.9 mph 40% 0 in
15:04 66.6 °F 41.4 °F 30 in Oeste 2 mph 7.4 mph 39.9% 0 in
15:09 66.4 °F 41 °F 30 in NO 2.5 mph 7 mph 39.5% 0 in
15:14 66.2 °F 41.2 °F 30 in NO 3.1 mph 6 mph 40% 0 in
15:19 66.2 °F 41.2 °F 30 in ONO 3 mph 6 mph 40% 0 in
15:24 66.6 °F 41.4 °F 30 in ONO 2.9 mph 5.4 mph 40% 0 in
15:29 66.9 °F 41.4 °F 30 in OSO 2.4 mph 6 mph 39.5% 0 in
15:34 67.3 °F 41.4 °F 30 in OSO 2 mph 6.9 mph 39% 0 in
15:39 67.5 °F 41.5 °F 30 in Oeste 3 mph 7 mph 39% 0 in
15:44 67.3 °F 41.5 °F 30 in Oeste 4 mph 6.9 mph 39% 0 in
15:49 67.1 °F 41.5 °F 30 in NO 4.2 mph 7 mph 39.3% 0 in
15:54 67.3 °F 41.5 °F 30 in NO 4.3 mph 7 mph 39.2% 0 in
15:59 67.5 °F 41.5 °F 30 in NO 3 mph 5 mph 39% 0 in
16:04 67.5 °F 41.7 °F 30 in NE 2 mph 6.2 mph 39.3% 0 in
16:09 67.3 °F 42.1 °F 30 in NE 2.6 mph 6.9 mph 40% 0 in
16:14 67.1 °F 42.1 °F 30 in NNE 3.1 mph 7 mph 40% 0 in
16:19 67.1 °F 41.9 °F 30 in NNE 3.1 mph 7 mph 40% 0 in
16:24 67.3 °F 42.1 °F 30 in North 3.1 mph 5 mph 40% 0 in
16:29 67.5 °F 42.3 °F 30 in NNO 2.5 mph 5 mph 39.8% 0 in
16:34 67.6 °F 41.9 °F 30 in ONO 2 mph 4 mph 39% 0 in
16:39 67.8 °F 41.9 °F 30 in ONO 1.9 mph 3.6 mph 39% 0 in
16:44 67.8 °F 41.9 °F 30 in ONO 1.8 mph 4 mph 39% 0 in
16:49 67.8 °F 41.9 °F 30 in North 1.8 mph 4.7 mph 39% 0 in
16:54 67.8 °F 42.4 °F 30 in NNE 1.8 mph 5.8 mph 39.7% 0 in
16:59 68 °F 42.8 °F 30 in North 1.9 mph 6 mph 40% 0 in
17:04 68.4 °F 43 °F 30 in NNE 2 mph 6.4 mph 40% 0 in
17:09 67.8 °F 43.2 °F 30 in NE 2.9 mph 6.9 mph 40.9% 0 in
17:14 67.5 °F 43.3 °F 30 in NE 3.6 mph 7 mph 41.8% 0 in
17:19 67.1 °F 43.3 °F 30 in NE 3.4 mph 6 mph 42.3% 0 in
17:24 67.1 °F 43.3 °F 30 in NE 3.1 mph 5 mph 42% 0 in
17:29 67.3 °F 43.7 °F 30 in NE 2.5 mph 4.6 mph 42.5% 0 in
17:34 67.3 °F 43.3 °F 30 in NNE 2 mph 5 mph 42% 0 in
17:39 67.5 °F 43.9 °F 30 in Oeste 2 mph 6.9 mph 42.6% 0 in
17:44 67.3 °F 43.9 °F 30 in SSE 2 mph 7 mph 43% 0 in
17:49 66.9 °F 44.2 °F 30 in Sur 3 mph 7 mph 43.9% 0 in
17:54 66.7 °F 44.1 °F 30 in SSE 4 mph 7 mph 44% 0 in
17:59 66.6 °F 44.6 °F 30 in SSE 3.8 mph 7 mph 44.9% 0 in
18:04 66.6 °F 44.4 °F 30 in SE 3.6 mph 5.9 mph 45% 0 in
18:09 66.2 °F 44.2 °F 30 in SSE 3.2 mph 6 mph 45% 0 in
18:14 66 °F 44.2 °F 30 in Sur 2.9 mph 6 mph 45.2% 0 in
18:19 65.5 °F 44.6 °F 30 in ESE 2.9 mph 6 mph 46.6% 0 in
18:24 64.9 °F 44.6 °F 30 in Este 2.9 mph 5 mph 47.7% 0 in
18:29 64.4 °F 44.6 °F 30 in Este 2.9 mph 5 mph 48.5% 0 in
18:34 64 °F 44.6 °F 30 in ESE 2.9 mph 5 mph 49.4% 0 in
18:39 63.9 °F 44.8 °F 30 in ESE 2.3 mph 4 mph 50% 0 in
18:44 63.5 °F 44.8 °F 30 in ESE 1.8 mph 3.1 mph 50.5% 0 in
18:49 63.1 °F 44.2 °F 30 in SSE 1.9 mph 5.9 mph 50.1% 0 in
18:54 63 °F 44.1 °F 30 in SSE 2 mph 6.2 mph 50% 0 in
18:59 62.8 °F 43.9 °F 30 in Sur 3.2 mph 6 mph 50% 0 in
19:04 62.6 °F 44.1 °F 30 in SSO 4 mph 6 mph 50.7% 0 in
19:09 62.4 °F 44.2 °F 30 in SSO 3.8 mph 9.2 mph 51.6% 0 in
19:14 62.2 °F 44.6 °F 30 in SSO 3.6 mph 9.2 mph 52.5% 0 in
19:19 62.1 °F 44.8 °F 30 in SO 4.4 mph 9 mph 53.1% 0 in
19:24 61.7 °F 45 °F 30 in SO 5.2 mph 9 mph 54% 0 in
19:29 61.5 °F 44.6 °F 30 in SO 5.2 mph 9.7 mph 54% 0 in
19:34 61.3 °F 44.8 °F 30 in SO 5.2 mph 11.5 mph 54.8% 0 in
19:39 61.2 °F 44.8 °F 30 in SSO 5.3 mph 12 mph 55% 0 in
19:44 60.8 °F 44.6 °F 30 in SO 5.4 mph 10.7 mph 55.3% 0 in
19:49 60.4 °F 44.8 °F 30 in SO 5.7 mph 11 mph 56% 0 in
19:54 60.3 °F 44.8 °F 30 in SO 5.9 mph 9.2 mph 56.3% 0 in
19:59 60.3 °F 45 °F 30 in SO 5.5 mph 9 mph 57% 0 in
20:04 60.1 °F 44.8 °F 30 in SSO 5.2 mph 8 mph 57% 0 in
20:09 59.7 °F 44.6 °F 30 in SO 4.3 mph 6.9 mph 57% 0 in
20:14 59.5 °F 44.8 °F 30 in SO 3.6 mph 8.1 mph 57.8% 0 in
20:19 59.4 °F 44.6 °F 30 in SO 3.6 mph 8 mph 58% 0 in
20:24 59.2 °F 44.8 °F 30 in OSO 3.6 mph 6 mph 58.7% 0 in
20:29 59 °F 44.6 °F 30 in OSO 2.7 mph 5 mph 59% 0 in
20:34 58.8 °F 44.8 °F 30 in OSO 2 mph 6.2 mph 59.7% 0 in
20:39 58.6 °F 44.8 °F 30 in SO 2 mph 6.4 mph 60% 0 in
20:44 58.5 °F 45 °F 30 in OSO 2 mph 7 mph 61% 0 in
20:49 58.3 °F 45 °F 30 in OSO 2.5 mph 7 mph 61.5% 0 in
20:54 57.9 °F 45 °F 30 in OSO 3.1 mph 7.4 mph 62% 0 in
20:59 57.7 °F 45 °F 30 in Oeste 3 mph 7 mph 62% 0 in
21:04 57.7 °F 45.1 °F 30 in Oeste 2.9 mph 2.4 mph 63% 0 in
21:09 57.6 °F 45.1 °F 30 in Oeste 1.4 mph 3.6 mph 63% 0 in
21:14 57.4 °F 45.1 °F 30 in Calm   4.6 mph 63.6% 0 in
21:19 57.4 °F 45.3 °F 30 in OSO 1.1 mph 5.4 mph 64% 0 in
21:24 57 °F 45.1 °F 30 in SSO 2 mph 6 mph 64.1% 0 in
21:29 56.8 °F 45.1 °F 30 in SSE 2.5 mph 6 mph 65% 0 in
21:34 56.5 °F 45 °F 30 in SE 3.1 mph 5.9 mph 65.3% 0 in
21:39 55.9 °F 45 °F 30 in SSE 3.1 mph 6.9 mph 66.5% 0 in
21:44 55.8 °F 45.1 °F 30 in Sur 3.1 mph 7 mph 67.8% 0 in
21:49 55.4 °F 45.1 °F 30 in Sur 3.5 mph 6.9 mph 68.4% 0 in
21:54 55.2 °F 45.1 °F 30 in Sur 4 mph 7 mph 69% 0 in
21:59 55 °F 45.1 °F 30 in Sur 3.8 mph 5.2 mph 69% 0 in
22:04 55 °F 45.1 °F 30 in Sur 3.6 mph 5.2 mph 69% 0 in
22:09 55 °F 45.1 °F 30 in Sur 3.8 mph 5.2 mph 69% 0 in
22:14 54.9 °F 45 °F 30 in SSO 4 mph 5.8 mph 69% 0 in
22:19 54.9 °F 45 °F 30 in SSO 3.8 mph 6.2 mph 69% 0 in
22:24 54.9 °F 45 °F 30 in SO 3.6 mph 8.5 mph 69% 0 in
22:29 55 °F 45.1 °F 30 in SO 4.2 mph 9.2 mph 69% 0 in
22:34 55 °F 44.8 °F 30 in SO 4.7 mph 9.7 mph 68.2% 0 in
22:39 55.2 °F 44.8 °F 30 in SO 5.3 mph 10 mph 68% 0 in
22:44 55.2 °F 44.8 °F 30 in SO 5.9 mph 9 mph 68% 0 in
22:49 55 °F 44.8 °F 30 in SSO 5.3 mph 8.1 mph 68% 0 in
22:54 55 °F 44.6 °F 30 in SO 4.7 mph 8 mph 68% 0 in
22:59 54.9 °F 44.4 °F 30 in SSO 4.3 mph 7 mph 68% 0 in
23:04 54.7 °F 44.4 °F 30 in Sur 4 mph 6 mph 68.2% 0 in
23:09 54.5 °F 44.6 °F 30 in SSO 3.5 mph 5 mph 69% 0 in
23:14 54.3 °F 44.4 °F 30 in SSE 2.9 mph 5.2 mph 69% 0 in
23:19 54 °F 44.4 °F 30 in Sur 3 mph 5.8 mph 70% 0 in
23:24 53.8 °F 44.4 °F 30 in Sur 3.1 mph 6 mph 70.8% 0 in
23:29 53.4 °F 44.2 °F 30 in Sur 3.4 mph 6.2 mph 71.2% 0 in
23:34 53.2 °F 44.4 °F 30 in Sur 3.6 mph 6 mph 72% 0 in
23:39 53.1 °F 44.4 °F 30 in Sur 3.4 mph 6.2 mph 72% 0 in
23:44 52.9 °F 44.1 °F 30 in Sur 3.1 mph 6.2 mph 72% 0 in
23:49 52.5 °F 44.1 °F 30 in Sur 3.5 mph 6.4 mph 72.7% 0 in
23:54 52.3 °F 43.9 °F 30 in SSE 4 mph 7.6 mph 73% 0 in
23:59 52 °F 43.9 °F 30 in SSE 4.7 mph 8.1 mph 73.9% 0 in
Murcia-Puente Tocinos, Espa?a
Compliments of Weather Underground - 3 mb

La estación de MeteoMurcia.com, publica sus datos en los siguientes proyectos:

Weather Underground PWS IMURCIAP2 Meteoclimatic www.awekas.at

W3Counter
Web Analytics